sensor_id;sensor_type;location;lat;lon;timestamp;P1;durP1;ratioP1;P2;durP2;ratioP2
54177;SDS011;40085;53.004;6.770;2024-02-26T00:01:48;2.90;;;2.70;;
54177;SDS011;40085;53.004;6.770;2024-02-26T00:04:14;2.75;;;2.55;;
54177;SDS011;40085;53.004;6.770;2024-02-26T00:06:40;2.80;;;2.60;;
54177;SDS011;40085;53.004;6.770;2024-02-26T00:09:06;2.78;;;2.58;;
54177;SDS011;40085;53.004;6.770;2024-02-26T00:11:35;2.50;;;2.30;;
54177;SDS011;40085;53.004;6.770;2024-02-26T00:14:02;3.15;;;2.85;;
54177;SDS011;40085;53.004;6.770;2024-02-26T00:16:28;2.63;;;2.42;;
54177;SDS011;40085;53.004;6.770;2024-02-26T00:18:54;2.90;;;2.58;;
54177;SDS011;40085;53.004;6.770;2024-02-26T00:21:19;3.00;;;2.80;;
54177;SDS011;40085;53.004;6.770;2024-02-26T00:23:45;3.25;;;2.95;;
54177;SDS011;40085;53.004;6.770;2024-02-26T00:26:11;2.50;;;2.30;;
54177;SDS011;40085;53.004;6.770;2024-02-26T00:28:37;2.72;;;2.53;;
54177;SDS011;40085;53.004;6.770;2024-02-26T00:31:02;2.50;;;2.30;;
54177;SDS011;40085;53.004;6.770;2024-02-26T00:33:28;2.65;;;2.45;;
54177;SDS011;40085;53.004;6.770;2024-02-26T00:35:54;2.63;;;2.35;;
54177;SDS011;40085;53.004;6.770;2024-02-26T00:38:26;2.60;;;2.40;;
54177;SDS011;40085;53.004;6.770;2024-02-26T00:41:05;2.83;;;2.63;;
54177;SDS011;40085;53.004;6.770;2024-02-26T00:43:31;2.88;;;2.67;;
54177;SDS011;40085;53.004;6.770;2024-02-26T00:45:57;3.60;;;3.30;;
54177;SDS011;40085;53.004;6.770;2024-02-26T00:48:22;2.85;;;2.65;;
54177;SDS011;40085;53.004;6.770;2024-02-26T00:50:50;3.67;;;3.38;;
54177;SDS011;40085;53.004;6.770;2024-02-26T00:53:16;2.88;;;2.63;;
54177;SDS011;40085;53.004;6.770;2024-02-26T00:55:42;3.13;;;2.83;;
54177;SDS011;40085;53.004;6.770;2024-02-26T00:58:08;3.22;;;2.92;;
54177;SDS011;40085;53.004;6.770;2024-02-26T01:00:34;2.85;;;2.65;;
54177;SDS011;40085;53.004;6.770;2024-02-26T01:03:00;3.03;;;2.75;;
54177;SDS011;40085;53.004;6.770;2024-02-26T01:05:26;3.28;;;3.08;;
54177;SDS011;40085;53.004;6.770;2024-02-26T01:07:51;3.80;;;3.50;;
54177;SDS011;40085;53.004;6.770;2024-02-26T01:10:17;3.28;;;2.97;;
54177;SDS011;40085;53.004;6.770;2024-02-26T01:12:43;3.80;;;3.50;;
54177;SDS011;40085;53.004;6.770;2024-02-26T01:15:08;3.60;;;3.30;;
54177;SDS011;40085;53.004;6.770;2024-02-26T01:17:34;3.78;;;3.47;;
54177;SDS011;40085;53.004;6.770;2024-02-26T01:20:00;3.45;;;3.15;;
54177;SDS011;40085;53.004;6.770;2024-02-26T01:22:26;3.95;;;3.65;;
54177;SDS011;40085;53.004;6.770;2024-02-26T01:24:51;3.50;;;3.20;;
54177;SDS011;40085;53.004;6.770;2024-02-26T01:27:17;3.40;;;3.10;;
54177;SDS011;40085;53.004;6.770;2024-02-26T01:29:43;3.83;;;3.50;;
54177;SDS011;40085;53.004;6.770;2024-02-26T01:32:10;3.92;;;3.63;;
54177;SDS011;40085;53.004;6.770;2024-02-26T01:34:35;3.80;;;3.50;;
54177;SDS011;40085;53.004;6.770;2024-02-26T01:37:02;4.25;;;3.85;;
54177;SDS011;40085;53.004;6.770;2024-02-26T01:39:34;4.05;;;3.75;;
54177;SDS011;40085;53.004;6.770;2024-02-26T01:42:00;4.20;;;3.88;;
54177;SDS011;40085;53.004;6.770;2024-02-26T01:44:26;4.15;;;3.85;;
54177;SDS011;40085;53.004;6.770;2024-02-26T01:46:52;4.70;;;4.30;;
54177;SDS011;40085;53.004;6.770;2024-02-26T01:49:18;3.65;;;3.35;;
54177;SDS011;40085;53.004;6.770;2024-02-26T01:51:45;3.88;;;3.58;;
54177;SDS011;40085;53.004;6.770;2024-02-26T01:54:11;4.45;;;4.05;;
54177;SDS011;40085;53.004;6.770;2024-02-26T01:56:37;4.10;;;3.80;;
54177;SDS011;40085;53.004;6.770;2024-02-26T01:59:05;4.20;;;3.80;;
54177;SDS011;40085;53.004;6.770;2024-02-26T02:01:33;4.70;;;4.30;;
54177;SDS011;40085;53.004;6.770;2024-02-26T02:04:00;4.55;;;4.15;;
54177;SDS011;40085;53.004;6.770;2024-02-26T02:06:26;4.05;;;3.75;;
54177;SDS011;40085;53.004;6.770;2024-02-26T02:08:56;4.03;;;3.72;;
54177;SDS011;40085;53.004;6.770;2024-02-26T02:11:21;4.90;;;4.50;;
54177;SDS011;40085;53.004;6.770;2024-02-26T02:13:47;4.40;;;4.00;;
54177;SDS011;40085;53.004;6.770;2024-02-26T02:16:13;4.45;;;3.80;;
54177;SDS011;40085;53.004;6.770;2024-02-26T02:18:39;4.07;;;3.78;;
54177;SDS011;40085;53.004;6.770;2024-02-26T02:21:05;5.00;;;4.60;;
54177;SDS011;40085;53.004;6.770;2024-02-26T02:23:30;4.53;;;4.13;;
54177;SDS011;40085;53.004;6.770;2024-02-26T02:25:56;4.60;;;4.20;;
54177;SDS011;40085;53.004;6.770;2024-02-26T02:28:23;4.70;;;4.30;;
54177;SDS011;40085;53.004;6.770;2024-02-26T02:30:51;4.88;;;4.47;;
54177;SDS011;40085;53.004;6.770;2024-02-26T02:33:17;4.78;;;4.32;;
54177;SDS011;40085;53.004;6.770;2024-02-26T02:35:43;4.45;;;4.05;;
54177;SDS011;40085;53.004;6.770;2024-02-26T02:38:08;4.20;;;3.80;;
54177;SDS011;40085;53.004;6.770;2024-02-26T02:40:54;4.13;;;3.83;;
54177;SDS011;40085;53.004;6.770;2024-02-26T02:43:20;4.07;;;3.78;;
54177;SDS011;40085;53.004;6.770;2024-02-26T02:45:45;3.92;;;3.58;;
54177;SDS011;40085;53.004;6.770;2024-02-26T02:48:11;4.43;;;4.05;;
54177;SDS011;40085;53.004;6.770;2024-02-26T02:50:37;4.07;;;3.78;;
54177;SDS011;40085;53.004;6.770;2024-02-26T02:53:03;3.67;;;3.38;;
54177;SDS011;40085;53.004;6.770;2024-02-26T02:55:29;3.90;;;3.60;;
54177;SDS011;40085;53.004;6.770;2024-02-26T02:57:55;3.97;;;3.67;;
54177;SDS011;40085;53.004;6.770;2024-02-26T03:00:20;3.92;;;3.63;;
54177;SDS011;40085;53.004;6.770;2024-02-26T03:02:49;3.92;;;3.63;;
54177;SDS011;40085;53.004;6.770;2024-02-26T03:05:15;4.05;;;3.75;;
54177;SDS011;40085;53.004;6.770;2024-02-26T03:07:40;4.20;;;3.85;;
54177;SDS011;40085;53.004;6.770;2024-02-26T03:10:06;3.58;;;3.28;;
54177;SDS011;40085;53.004;6.770;2024-02-26T03:12:33;3.53;;;3.22;;
54177;SDS011;40085;53.004;6.770;2024-02-26T03:14:59;3.33;;;3.03;;
54177;SDS011;40085;53.004;6.770;2024-02-26T03:17:28;3.60;;;3.30;;
54177;SDS011;40085;53.004;6.770;2024-02-26T03:19:54;2.63;;;2.42;;
54177;SDS011;40085;53.004;6.770;2024-02-26T03:22:20;3.25;;;2.95;;
54177;SDS011;40085;53.004;6.770;2024-02-26T03:24:46;2.75;;;2.55;;
54177;SDS011;40085;53.004;6.770;2024-02-26T03:27:12;3.25;;;2.95;;
54177;SDS011;40085;53.004;6.770;2024-02-26T03:29:38;3.05;;;2.85;;
54177;SDS011;40085;53.004;6.770;2024-02-26T03:32:04;2.38;;;2.17;;
54177;SDS011;40085;53.004;6.770;2024-02-26T03:34:30;2.97;;;2.78;;
54177;SDS011;40085;53.004;6.770;2024-02-26T03:36:59;2.88;;;2.67;;
54177;SDS011;40085;53.004;6.770;2024-02-26T03:39:25;2.83;;;2.63;;
54177;SDS011;40085;53.004;6.770;2024-02-26T03:42:11;2.80;;;2.60;;
54177;SDS011;40085;53.004;6.770;2024-02-26T03:44:37;2.78;;;2.58;;
54177;SDS011;40085;53.004;6.770;2024-02-26T03:47:02;2.83;;;2.63;;
54177;SDS011;40085;53.004;6.770;2024-02-26T03:49:28;2.60;;;2.40;;
54177;SDS011;40085;53.004;6.770;2024-02-26T03:51:54;2.60;;;2.40;;
54177;SDS011;40085;53.004;6.770;2024-02-26T03:54:19;2.80;;;2.60;;
54177;SDS011;40085;53.004;6.770;2024-02-26T03:56:45;2.70;;;2.50;;
54177;SDS011;40085;53.004;6.770;2024-02-26T03:59:11;2.65;;;2.45;;
54177;SDS011;40085;53.004;6.770;2024-02-26T04:01:36;2.60;;;2.40;;
54177;SDS011;40085;53.004;6.770;2024-02-26T04:04:02;2.00;;;1.90;;
54177;SDS011;40085;53.004;6.770;2024-02-26T04:06:28;2.58;;;2.38;;
54177;SDS011;40085;53.004;6.770;2024-02-26T04:08:54;1.90;;;1.80;;
54177;SDS011;40085;53.004;6.770;2024-02-26T04:11:19;2.85;;;2.55;;
54177;SDS011;40085;53.004;6.770;2024-02-26T04:13:45;2.45;;;2.25;;
54177;SDS011;40085;53.004;6.770;2024-02-26T04:16:14;2.63;;;2.42;;
54177;SDS011;40085;53.004;6.770;2024-02-26T04:18:40;1.95;;;1.85;;
54177;SDS011;40085;53.004;6.770;2024-02-26T04:21:05;2.22;;;2.05;;
54177;SDS011;40085;53.004;6.770;2024-02-26T04:23:32;2.55;;;2.35;;
54177;SDS011;40085;53.004;6.770;2024-02-26T04:25:58;1.85;;;1.75;;
54177;SDS011;40085;53.004;6.770;2024-02-26T04:28:23;2.60;;;2.00;;
54177;SDS011;40085;53.004;6.770;2024-02-26T04:30:51;2.28;;;2.08;;
54177;SDS011;40085;53.004;6.770;2024-02-26T04:33:17;1.50;;;1.40;;
54177;SDS011;40085;53.004;6.770;2024-02-26T04:35:42;1.70;;;1.60;;
54177;SDS011;40085;53.004;6.770;2024-02-26T04:38:08;1.88;;;1.65;;
54177;SDS011;40085;53.004;6.770;2024-02-26T04:40:33;1.60;;;1.50;;
54177;SDS011;40085;53.004;6.770;2024-02-26T04:43:05;1.83;;;1.63;;
54177;SDS011;40085;53.004;6.770;2024-02-26T04:45:31;1.58;;;1.48;;
54177;SDS011;40085;53.004;6.770;2024-02-26T04:47:57;1.30;;;1.20;;
54177;SDS011;40085;53.004;6.770;2024-02-26T04:50:22;1.60;;;1.50;;
54177;SDS011;40085;53.004;6.770;2024-02-26T04:52:48;1.58;;;1.48;;
54177;SDS011;40085;53.004;6.770;2024-02-26T04:55:14;1.55;;;1.45;;
54177;SDS011;40085;53.004;6.770;2024-02-26T04:57:40;1.58;;;1.48;;
54177;SDS011;40085;53.004;6.770;2024-02-26T05:00:05;1.80;;;1.70;;
54177;SDS011;40085;53.004;6.770;2024-02-26T05:02:31;1.45;;;1.30;;
54177;SDS011;40085;53.004;6.770;2024-02-26T05:04:58;1.60;;;1.50;;
54177;SDS011;40085;53.004;6.770;2024-02-26T05:07:24;1.48;;;1.38;;
54177;SDS011;40085;53.004;6.770;2024-02-26T05:09:50;1.63;;;1.52;;
54177;SDS011;40085;53.004;6.770;2024-02-26T05:12:15;1.60;;;1.50;;
54177;SDS011;40085;53.004;6.770;2024-02-26T05:14:41;1.38;;;1.20;;
54177;SDS011;40085;53.004;6.770;2024-02-26T05:17:07;1.63;;;1.52;;
54177;SDS011;40085;53.004;6.770;2024-02-26T05:19:33;1.30;;;1.20;;
54177;SDS011;40085;53.004;6.770;2024-02-26T05:21:59;1.50;;;1.40;;
54177;SDS011;40085;53.004;6.770;2024-02-26T05:24:24;1.27;;;1.17;;
54177;SDS011;40085;53.004;6.770;2024-02-26T05:26:50;2.15;;;1.23;;
54177;SDS011;40085;53.004;6.770;2024-02-26T05:29:16;1.30;;;1.20;;
54177;SDS011;40085;53.004;6.770;2024-02-26T05:31:42;1.30;;;1.20;;
54177;SDS011;40085;53.004;6.770;2024-02-26T05:34:08;1.58;;;1.48;;
54177;SDS011;40085;53.004;6.770;2024-02-26T05:36:34;1.08;;;1.08;;
54177;SDS011;40085;53.004;6.770;2024-02-26T05:39:00;1.67;;;1.25;;
54177;SDS011;40085;53.004;6.770;2024-02-26T05:41:39;1.48;;;1.38;;
54177;SDS011;40085;53.004;6.770;2024-02-26T05:44:07;1.00;;;1.00;;
54177;SDS011;40085;53.004;6.770;2024-02-26T05:46:35;1.60;;;1.20;;
54177;SDS011;40085;53.004;6.770;2024-02-26T05:49:00;1.23;;;1.13;;
54177;SDS011;40085;53.004;6.770;2024-02-26T05:51:26;1.27;;;1.20;;
54177;SDS011;40085;53.004;6.770;2024-02-26T05:53:52;1.40;;;1.30;;
54177;SDS011;40085;53.004;6.770;2024-02-26T05:56:21;1.10;;;1.10;;
54177;SDS011;40085;53.004;6.770;2024-02-26T05:58:47;1.05;;;1.05;;
54177;SDS011;40085;53.004;6.770;2024-02-26T06:01:13;1.10;;;1.00;;
54177;SDS011;40085;53.004;6.770;2024-02-26T06:03:40;1.40;;;1.30;;
54177;SDS011;40085;53.004;6.770;2024-02-26T06:06:06;1.00;;;1.00;;
54177;SDS011;40085;53.004;6.770;2024-02-26T06:08:32;1.40;;;1.30;;
54177;SDS011;40085;53.004;6.770;2024-02-26T06:10:57;0.93;;;0.90;;
54177;SDS011;40085;53.004;6.770;2024-02-26T06:13:24;1.10;;;1.10;;
54177;SDS011;40085;53.004;6.770;2024-02-26T06:15:49;1.23;;;1.13;;
54177;SDS011;40085;53.004;6.770;2024-02-26T06:18:15;0.80;;;0.80;;
54177;SDS011;40085;53.004;6.770;2024-02-26T06:20:41;1.20;;;1.10;;
54177;SDS011;40085;53.004;6.770;2024-02-26T06:23:07;0.93;;;0.93;;
54177;SDS011;40085;53.004;6.770;2024-02-26T06:25:32;1.40;;;1.30;;
54177;SDS011;40085;53.004;6.770;2024-02-26T06:27:58;1.25;;;1.15;;
54177;SDS011;40085;53.004;6.770;2024-02-26T06:30:24;1.20;;;1.10;;
54177;SDS011;40085;53.004;6.770;2024-02-26T06:32:49;1.17;;;1.10;;
54177;SDS011;40085;53.004;6.770;2024-02-26T06:35:15;1.30;;;1.20;;
54177;SDS011;40085;53.004;6.770;2024-02-26T06:37:41;1.05;;;1.00;;
54177;SDS011;40085;53.004;6.770;2024-02-26T06:40:06;0.90;;;0.90;;
54177;SDS011;40085;53.004;6.770;2024-02-26T06:42:46;1.30;;;1.20;;
54177;SDS011;40085;53.004;6.770;2024-02-26T06:45:12;1.15;;;1.10;;
54177;SDS011;40085;53.004;6.770;2024-02-26T06:47:38;1.30;;;0.93;;
54177;SDS011;40085;53.004;6.770;2024-02-26T06:50:03;0.90;;;0.90;;
54177;SDS011;40085;53.004;6.770;2024-02-26T06:52:29;1.00;;;0.93;;
54177;SDS011;40085;53.004;6.770;2024-02-26T06:54:55;0.82;;;0.82;;
54177;SDS011;40085;53.004;6.770;2024-02-26T06:57:21;1.15;;;1.05;;
54177;SDS011;40085;53.004;6.770;2024-02-26T06:59:46;0.93;;;0.77;;
54177;SDS011;40085;53.004;6.770;2024-02-26T07:02:13;0.90;;;0.90;;
54177;SDS011;40085;53.004;6.770;2024-02-26T07:04:39;1.45;;;1.10;;
54177;SDS011;40085;53.004;6.770;2024-02-26T07:07:05;0.90;;;0.90;;
54177;SDS011;40085;53.004;6.770;2024-02-26T07:09:32;1.25;;;1.08;;
54177;SDS011;40085;53.004;6.770;2024-02-26T07:11:58;0.80;;;0.80;;
54177;SDS011;40085;53.004;6.770;2024-02-26T07:14:23;0.98;;;0.98;;
54177;SDS011;40085;53.004;6.770;2024-02-26T07:16:50;1.08;;;1.00;;
54177;SDS011;40085;53.004;6.770;2024-02-26T07:19:16;1.02;;;1.00;;
54177;SDS011;40085;53.004;6.770;2024-02-26T07:21:41;0.90;;;0.90;;
54177;SDS011;40085;53.004;6.770;2024-02-26T07:24:07;0.98;;;0.98;;
54177;SDS011;40085;53.004;6.770;2024-02-26T07:26:33;1.40;;;1.30;;
54177;SDS011;40085;53.004;6.770;2024-02-26T07:28:59;0.93;;;0.93;;
54177;SDS011;40085;53.004;6.770;2024-02-26T07:31:26;1.20;;;1.10;;
54177;SDS011;40085;53.004;6.770;2024-02-26T07:33:51;1.00;;;0.95;;
54177;SDS011;40085;53.004;6.770;2024-02-26T07:36:17;0.90;;;0.90;;
54177;SDS011;40085;53.004;6.770;2024-02-26T07:38:49;1.20;;;1.10;;
54177;SDS011;40085;53.004;6.770;2024-02-26T07:41:28;1.92;;;1.30;;
54177;SDS011;40085;53.004;6.770;2024-02-26T07:43:54;1.20;;;1.10;;
54177;SDS011;40085;53.004;6.770;2024-02-26T07:46:19;0.77;;;0.77;;
54177;SDS011;40085;53.004;6.770;2024-02-26T07:48:45;0.80;;;0.80;;
54177;SDS011;40085;53.004;6.770;2024-02-26T07:51:14;0.90;;;0.90;;
54177;SDS011;40085;53.004;6.770;2024-02-26T07:53:40;1.02;;;1.02;;
54177;SDS011;40085;53.004;6.770;2024-02-26T07:56:05;1.05;;;1.00;;
54177;SDS011;40085;53.004;6.770;2024-02-26T07:58:32;1.00;;;1.00;;
54177;SDS011;40085;53.004;6.770;2024-02-26T08:00:58;1.00;;;1.00;;
54177;SDS011;40085;53.004;6.770;2024-02-26T08:03:24;1.58;;;1.00;;
54177;SDS011;40085;53.004;6.770;2024-02-26T08:05:50;1.02;;;1.02;;
54177;SDS011;40085;53.004;6.770;2024-02-26T08:08:16;0.82;;;0.82;;
54177;SDS011;40085;53.004;6.770;2024-02-26T08:10:42;1.08;;;1.08;;
54177;SDS011;40085;53.004;6.770;2024-02-26T08:13:08;0.88;;;0.88;;
54177;SDS011;40085;53.004;6.770;2024-02-26T08:15:34;1.00;;;1.00;;
54177;SDS011;40085;53.004;6.770;2024-02-26T08:18:03;1.23;;;1.10;;
54177;SDS011;40085;53.004;6.770;2024-02-26T08:20:29;0.80;;;0.80;;
54177;SDS011;40085;53.004;6.770;2024-02-26T08:22:55;0.95;;;0.90;;
54177;SDS011;40085;53.004;6.770;2024-02-26T08:25:21;1.10;;;1.10;;
54177;SDS011;40085;53.004;6.770;2024-02-26T08:27:47;1.08;;;1.02;;
54177;SDS011;40085;53.004;6.770;2024-02-26T08:30:14;1.13;;;1.02;;
54177;SDS011;40085;53.004;6.770;2024-02-26T08:32:42;1.20;;;1.10;;
54177;SDS011;40085;53.004;6.770;2024-02-26T08:35:09;1.30;;;1.05;;
54177;SDS011;40085;53.004;6.770;2024-02-26T08:37:34;1.10;;;1.10;;
54177;SDS011;40085;53.004;6.770;2024-02-26T08:40:07;0.88;;;0.88;;
54177;SDS011;40085;53.004;6.770;2024-02-26T08:42:46;1.02;;;1.00;;
54177;SDS011;40085;53.004;6.770;2024-02-26T08:45:12;1.10;;;1.10;;
54177;SDS011;40085;53.004;6.770;2024-02-26T08:47:38;0.90;;;0.90;;
54177;SDS011;40085;53.004;6.770;2024-02-26T08:50:04;1.00;;;1.00;;
54177;SDS011;40085;53.004;6.770;2024-02-26T08:52:31;1.38;;;0.98;;
54177;SDS011;40085;53.004;6.770;2024-02-26T08:54:58;1.02;;;1.02;;
54177;SDS011;40085;53.004;6.770;2024-02-26T08:57:24;1.00;;;1.00;;
54177;SDS011;40085;53.004;6.770;2024-02-26T08:59:52;1.20;;;1.10;;
54177;SDS011;40085;53.004;6.770;2024-02-26T09:02:17;1.23;;;1.13;;
54177;SDS011;40085;53.004;6.770;2024-02-26T09:04:44;1.23;;;1.13;;
54177;SDS011;40085;53.004;6.770;2024-02-26T09:07:10;1.05;;;1.05;;
54177;SDS011;40085;53.004;6.770;2024-02-26T09:09:36;0.90;;;0.90;;
54177;SDS011;40085;53.004;6.770;2024-02-26T09:12:02;1.10;;;1.00;;
54177;SDS011;40085;53.004;6.770;2024-02-26T09:14:27;1.30;;;1.20;;
54177;SDS011;40085;53.004;6.770;2024-02-26T09:16:53;1.10;;;1.10;;
54177;SDS011;40085;53.004;6.770;2024-02-26T09:19:19;1.10;;;1.10;;
54177;SDS011;40085;53.004;6.770;2024-02-26T09:21:44;1.15;;;1.10;;
54177;SDS011;40085;53.004;6.770;2024-02-26T09:24:11;1.10;;;1.00;;
54177;SDS011;40085;53.004;6.770;2024-02-26T09:26:37;0.90;;;0.90;;
54177;SDS011;40085;53.004;6.770;2024-02-26T09:29:03;1.23;;;1.17;;
54177;SDS011;40085;53.004;6.770;2024-02-26T09:31:33;0.90;;;0.90;;
54177;SDS011;40085;53.004;6.770;2024-02-26T09:33:59;1.20;;;1.10;;
54177;SDS011;40085;53.004;6.770;2024-02-26T09:36:25;0.90;;;0.90;;
54177;SDS011;40085;53.004;6.770;2024-02-26T09:38:50;1.30;;;1.20;;
54177;SDS011;40085;53.004;6.770;2024-02-26T09:41:23;1.00;;;1.00;;
54177;SDS011;40085;53.004;6.770;2024-02-26T09:43:50;1.23;;;1.13;;
54177;SDS011;40085;53.004;6.770;2024-02-26T09:46:21;1.25;;;1.17;;
54177;SDS011;40085;53.004;6.770;2024-02-26T09:48:47;1.38;;;1.27;;
54177;SDS011;40085;53.004;6.770;2024-02-26T09:51:12;1.00;;;1.00;;
54177;SDS011;40085;53.004;6.770;2024-02-26T09:53:39;1.00;;;1.00;;
54177;SDS011;40085;53.004;6.770;2024-02-26T09:56:09;1.35;;;1.25;;
54177;SDS011;40085;53.004;6.770;2024-02-26T09:58:36;1.30;;;1.20;;
54177;SDS011;40085;53.004;6.770;2024-02-26T10:01:02;1.30;;;1.20;;
54177;SDS011;40085;53.004;6.770;2024-02-26T10:03:31;1.20;;;1.10;;
54177;SDS011;40085;53.004;6.770;2024-02-26T10:06:02;1.10;;;1.10;;
54177;SDS011;40085;53.004;6.770;2024-02-26T10:08:30;1.70;;;1.38;;
54177;SDS011;40085;53.004;6.770;2024-02-26T10:10:57;1.00;;;1.00;;
54177;SDS011;40085;53.004;6.770;2024-02-26T10:13:23;1.52;;;1.42;;
54177;SDS011;40085;53.004;6.770;2024-02-26T10:15:48;1.38;;;1.27;;
54177;SDS011;40085;53.004;6.770;2024-02-26T10:18:14;1.23;;;1.13;;
54177;SDS011;40085;53.004;6.770;2024-02-26T10:20:40;1.38;;;1.27;;
54177;SDS011;40085;53.004;6.770;2024-02-26T10:23:06;1.40;;;1.30;;
54177;SDS011;40085;53.004;6.770;2024-02-26T10:25:31;1.27;;;1.17;;
54177;SDS011;40085;53.004;6.770;2024-02-26T10:28:01;1.33;;;1.23;;
54177;SDS011;40085;53.004;6.770;2024-02-26T10:30:27;1.40;;;1.30;;
54177;SDS011;40085;53.004;6.770;2024-02-26T10:32:53;1.27;;;1.17;;
54177;SDS011;40085;53.004;6.770;2024-02-26T10:35:21;1.00;;;1.00;;
54177;SDS011;40085;53.004;6.770;2024-02-26T10:37:47;1.00;;;1.00;;
54177;SDS011;40085;53.004;6.770;2024-02-26T10:40:14;0.93;;;0.93;;
54177;SDS011;40085;53.004;6.770;2024-02-26T10:43:01;1.33;;;1.23;;
54177;SDS011;40085;53.004;6.770;2024-02-26T10:45:27;1.50;;;1.40;;
54177;SDS011;40085;53.004;6.770;2024-02-26T10:47:53;1.35;;;1.25;;
54177;SDS011;40085;53.004;6.770;2024-02-26T10:50:19;1.15;;;1.15;;
54177;SDS011;40085;53.004;6.770;2024-02-26T10:52:45;1.30;;;1.20;;
54177;SDS011;40085;53.004;6.770;2024-02-26T10:55:17;1.35;;;1.25;;
54177;SDS011;40085;53.004;6.770;2024-02-26T10:57:44;1.40;;;1.30;;
54177;SDS011;40085;53.004;6.770;2024-02-26T11:00:13;1.00;;;1.00;;
54177;SDS011;40085;53.004;6.770;2024-02-26T11:02:40;1.00;;;1.00;;
54177;SDS011;40085;53.004;6.770;2024-02-26T11:05:07;1.05;;;1.05;;
54177;SDS011;40085;53.004;6.770;2024-02-26T11:07:34;1.10;;;1.10;;
54177;SDS011;40085;53.004;6.770;2024-02-26T11:10:02;1.00;;;1.00;;
54177;SDS011;40085;53.004;6.770;2024-02-26T11:12:32;1.13;;;1.10;;
54177;SDS011;40085;53.004;6.770;2024-02-26T11:15:02;1.27;;;1.20;;
54177;SDS011;40085;53.004;6.770;2024-02-26T11:17:28;1.25;;;1.15;;
54177;SDS011;40085;53.004;6.770;2024-02-26T11:19:58;1.00;;;1.00;;
54177;SDS011;40085;53.004;6.770;2024-02-26T11:22:25;1.15;;;1.15;;
54177;SDS011;40085;53.004;6.770;2024-02-26T11:24:54;1.08;;;1.08;;
54177;SDS011;40085;53.004;6.770;2024-02-26T11:27:26;1.10;;;1.10;;
54177;SDS011;40085;53.004;6.770;2024-02-26T11:30:01;1.25;;;1.17;;
54177;SDS011;40085;53.004;6.770;2024-02-26T11:32:30;1.10;;;1.10;;
54177;SDS011;40085;53.004;6.770;2024-02-26T11:34:56;1.00;;;1.00;;
54177;SDS011;40085;53.004;6.770;2024-02-26T11:37:23;1.30;;;1.20;;
54177;SDS011;40085;53.004;6.770;2024-02-26T11:39:51;1.40;;;1.30;;
54177;SDS011;40085;53.004;6.770;2024-02-26T11:42:43;1.15;;;1.13;;
54177;SDS011;40085;53.004;6.770;2024-02-26T11:46:10;1.50;;;1.20;;
54177;SDS011;40085;53.004;6.770;2024-02-26T11:48:11;1.05;;;1.00;;
54177;SDS011;40085;53.004;6.770;2024-02-26T11:50:41;1.13;;;1.08;;
54177;SDS011;40085;53.004;6.770;2024-02-26T11:55:46;1.10;;;1.00;;
54177;SDS011;40085;53.004;6.770;2024-02-26T11:58:12;0.90;;;0.90;;
54177;SDS011;40085;53.004;6.770;2024-02-26T12:00:42;1.10;;;1.05;;
54177;SDS011;40085;53.004;6.770;2024-02-26T12:03:07;1.05;;;1.02;;
54177;SDS011;40085;53.004;6.770;2024-02-26T12:05:36;1.08;;;1.00;;
54177;SDS011;40085;53.004;6.770;2024-02-26T12:08:03;1.30;;;1.20;;
54177;SDS011;40085;53.004;6.770;2024-02-26T12:10:40;1.30;;;1.20;;
54177;SDS011;40085;53.004;6.770;2024-02-26T12:13:15;1.08;;;1.00;;
54177;SDS011;40085;53.004;6.770;2024-02-26T12:15:54;1.13;;;1.10;;
54177;SDS011;40085;53.004;6.770;2024-02-26T12:18:22;1.10;;;1.08;;
54177;SDS011;40085;53.004;6.770;2024-02-26T12:21:01;1.48;;;1.10;;
54177;SDS011;40085;53.004;6.770;2024-02-26T12:23:27;1.50;;;1.40;;
54177;SDS011;40085;53.004;6.770;2024-02-26T12:25:53;1.30;;;1.20;;
54177;SDS011;40085;53.004;6.770;2024-02-26T12:28:27;1.20;;;1.15;;
54177;SDS011;40085;53.004;6.770;2024-02-26T12:30:53;1.35;;;1.25;;
54177;SDS011;40085;53.004;6.770;2024-02-26T12:33:19;1.15;;;1.15;;
54177;SDS011;40085;53.004;6.770;2024-02-26T12:35:45;2.00;;;1.40;;
54177;SDS011;40085;53.004;6.770;2024-02-26T12:38:14;1.30;;;1.20;;
54177;SDS011;40085;53.004;6.770;2024-02-26T12:40:40;1.05;;;1.00;;
54177;SDS011;40085;53.004;6.770;2024-02-26T12:43:14;1.48;;;1.38;;
54177;SDS011;40085;53.004;6.770;2024-02-26T12:45:40;1.40;;;1.30;;
54177;SDS011;40085;53.004;6.770;2024-02-26T12:48:06;1.25;;;1.15;;
54177;SDS011;40085;53.004;6.770;2024-02-26T12:50:32;1.40;;;1.30;;
54177;SDS011;40085;53.004;6.770;2024-02-26T12:52:59;1.58;;;1.48;;
54177;SDS011;40085;53.004;6.770;2024-02-26T12:55:25;1.23;;;1.20;;
54177;SDS011;40085;53.004;6.770;2024-02-26T12:57:52;1.42;;;1.33;;
54177;SDS011;40085;53.004;6.770;2024-02-26T13:00:18;2.35;;;1.58;;
54177;SDS011;40085;53.004;6.770;2024-02-26T13:02:49;1.55;;;1.45;;
54177;SDS011;40085;53.004;6.770;2024-02-26T13:05:16;1.35;;;1.25;;
54177;SDS011;40085;53.004;6.770;2024-02-26T13:07:44;1.42;;;1.33;;
54177;SDS011;40085;53.004;6.770;2024-02-26T13:10:12;1.48;;;1.38;;
54177;SDS011;40085;53.004;6.770;2024-02-26T13:12:43;1.60;;;1.40;;
54177;SDS011;40085;53.004;6.770;2024-02-26T13:15:09;1.33;;;1.23;;
54177;SDS011;40085;53.004;6.770;2024-02-26T13:17:48;1.65;;;1.38;;
54177;SDS011;40085;53.004;6.770;2024-02-26T13:20:28;1.90;;;1.80;;
54177;SDS011;40085;53.004;6.770;2024-02-26T13:23:05;1.65;;;1.55;;
54177;SDS011;40085;53.004;6.770;2024-02-26T13:25:32;1.40;;;1.30;;
54177;SDS011;40085;53.004;6.770;2024-02-26T13:28:05;1.10;;;1.05;;
54177;SDS011;40085;53.004;6.770;2024-02-26T13:30:31;1.35;;;1.25;;
54177;SDS011;40085;53.004;6.770;2024-02-26T13:32:56;1.27;;;1.17;;
54177;SDS011;40085;53.004;6.770;2024-02-26T13:35:33;1.52;;;1.42;;
54177;SDS011;40085;53.004;6.770;2024-02-26T13:38:00;1.38;;;1.27;;
54177;SDS011;40085;53.004;6.770;2024-02-26T13:40:25;1.50;;;1.40;;
54177;SDS011;40085;53.004;6.770;2024-02-26T13:43:05;1.40;;;1.30;;
54177;SDS011;40085;53.004;6.770;2024-02-26T13:45:33;1.30;;;1.20;;
54177;SDS011;40085;53.004;6.770;2024-02-26T13:48:01;1.75;;;1.65;;
54177;SDS011;40085;53.004;6.770;2024-02-26T13:50:28;1.50;;;1.40;;
54177;SDS011;40085;53.004;6.770;2024-02-26T13:52:54;1.63;;;1.52;;
54177;SDS011;40085;53.004;6.770;2024-02-26T13:55:21;1.58;;;1.48;;
54177;SDS011;40085;53.004;6.770;2024-02-26T13:57:49;1.42;;;1.33;;
54177;SDS011;40085;53.004;6.770;2024-02-26T14:00:17;1.45;;;1.35;;
54177;SDS011;40085;53.004;6.770;2024-02-26T14:02:43;1.50;;;1.40;;
54177;SDS011;40085;53.004;6.770;2024-02-26T14:05:08;2.10;;;1.90;;
54177;SDS011;40085;53.004;6.770;2024-02-26T14:07:34;1.65;;;1.52;;
54177;SDS011;40085;53.004;6.770;2024-02-26T14:10:00;1.40;;;1.30;;
54177;SDS011;40085;53.004;6.770;2024-02-26T14:12:26;1.92;;;1.77;;
54177;SDS011;40085;53.004;6.770;2024-02-26T14:14:51;1.55;;;1.45;;
54177;SDS011;40085;53.004;6.770;2024-02-26T14:17:19;1.85;;;1.63;;
54177;SDS011;40085;53.004;6.770;2024-02-26T14:19:44;1.60;;;1.50;;
54177;SDS011;40085;53.004;6.770;2024-02-26T14:22:12;1.83;;;1.73;;
54177;SDS011;40085;53.004;6.770;2024-02-26T14:24:39;1.83;;;1.73;;
54177;SDS011;40085;53.004;6.770;2024-02-26T14:27:05;1.83;;;1.73;;
54177;SDS011;40085;53.004;6.770;2024-02-26T14:29:32;1.95;;;1.85;;
54177;SDS011;40085;53.004;6.770;2024-02-26T14:31:58;2.10;;;1.90;;
54177;SDS011;40085;53.004;6.770;2024-02-26T14:34:24;2.30;;;2.03;;
54177;SDS011;40085;53.004;6.770;2024-02-26T14:36:50;2.05;;;1.85;;
54177;SDS011;40085;53.004;6.770;2024-02-26T14:39:15;2.13;;;2.00;;
54177;SDS011;40085;53.004;6.770;2024-02-26T14:41:41;2.28;;;2.08;;
54177;SDS011;40085;53.004;6.770;2024-02-26T14:44:13;2.50;;;2.30;;
54177;SDS011;40085;53.004;6.770;2024-02-26T14:46:38;1.67;;;1.58;;
54177;SDS011;40085;53.004;6.770;2024-02-26T14:49:04;2.22;;;2.03;;
54177;SDS011;40085;53.004;6.770;2024-02-26T14:51:30;2.03;;;1.90;;